createdAt,value
2023-01-26T00:01:21.752Z,35.20
2023-01-26T00:03:49.130Z,37.57
2023-01-26T00:06:18.633Z,37.23
2023-01-26T00:08:48.520Z,38.97
2023-01-26T00:11:19.028Z,36.67
2023-01-26T00:13:46.091Z,36.73
2023-01-26T00:16:23.712Z,34.33
2023-01-26T00:18:50.951Z,36.87
2023-01-26T00:21:20.616Z,39.30
2023-01-26T00:23:48.220Z,43.70
2023-01-26T00:26:21.116Z,35.13
2023-01-26T00:28:48.344Z,34.03
2023-01-26T00:31:17.594Z,36.83
2023-01-26T00:33:44.758Z,34.10
2023-01-26T00:36:12.444Z,35.77
2023-01-26T00:38:39.803Z,33.27
2023-01-26T00:41:06.703Z,40.13
2023-01-26T00:43:33.849Z,39.13
2023-01-26T00:46:00.737Z,37.57
2023-01-26T00:48:27.600Z,37.60
2023-01-26T00:50:54.444Z,37.93
2023-01-26T00:53:21.243Z,38.33
2023-01-26T00:55:48.030Z,36.50
2023-01-26T00:58:14.856Z,38.33
2023-01-26T01:00:41.839Z,39.50
2023-01-26T01:03:08.739Z,37.60
2023-01-26T01:05:35.681Z,36.53
2023-01-26T01:08:02.886Z,37.83
2023-01-26T01:10:30.441Z,39.27
2023-01-26T01:12:57.294Z,40.10
2023-01-26T01:15:25.228Z,40.30
2023-01-26T01:17:52.434Z,39.77
2023-01-26T01:20:19.800Z,37.77
2023-01-26T01:22:46.737Z,36.77
2023-01-26T01:25:13.622Z,36.63
2023-01-26T01:27:40.454Z,41.53
2023-01-26T01:30:08.434Z,37.40
2023-01-26T01:32:36.499Z,38.17
2023-01-26T01:35:04.096Z,36.83
2023-01-26T01:37:31.242Z,40.03
2023-01-26T01:39:58.130Z,40.20
2023-01-26T01:42:25.809Z,37.97
2023-01-26T01:45:26.430Z,38.23
2023-01-26T01:47:57.137Z,37.00
2023-01-26T01:50:25.868Z,35.30
2023-01-26T01:52:54.995Z,37.40
2023-01-26T01:55:22.561Z,36.90
2023-01-26T01:58:00.301Z,35.77
2023-01-26T02:00:27.539Z,37.70
2023-01-26T02:03:21.276Z,36.73
2023-01-26T02:05:54.450Z,36.73
2023-01-26T02:08:26.641Z,39.67
2023-01-26T02:10:55.992Z,37.73
2023-01-26T02:13:24.322Z,40.13
2023-01-26T02:15:52.216Z,38.43
2023-01-26T02:18:19.248Z,36.83
2023-01-26T02:21:15.251Z,37.23
2023-01-26T02:24:29.434Z,36.70
2023-01-26T02:26:56.527Z,36.90
2023-01-26T02:29:23.743Z,37.40
2023-01-26T02:31:50.754Z,36.43
2023-01-26T02:34:17.590Z,37.00
2023-01-26T02:36:44.410Z,37.33
2023-01-26T02:39:44.196Z,38.53
2023-01-26T02:42:29.845Z,36.07
2023-01-26T02:44:56.768Z,38.07
2023-01-26T02:47:23.607Z,36.53
2023-01-26T02:49:53.450Z,36.77
2023-01-26T02:52:23.240Z,38.33
2023-01-26T02:55:08.991Z,35.43
2023-01-26T02:57:35.982Z,36.73
2023-01-26T03:00:06.087Z,31.53
2023-01-26T03:02:33.020Z,35.53
2023-01-26T03:04:59.873Z,33.93
2023-01-26T03:07:26.720Z,33.97
2023-01-26T03:09:54.047Z,34.90
2023-01-26T03:12:20.905Z,32.57
2023-01-26T03:15:07.683Z,31.70
2023-01-26T03:17:34.476Z,34.33
2023-01-26T03:20:19.766Z,32.20
2023-01-26T03:23:05.321Z,30.43
2023-01-26T03:25:50.808Z,31.33
2023-01-26T03:28:22.411Z,32.27
2023-01-26T03:30:50.460Z,29.23
2023-01-26T03:33:18.452Z,29.77
2023-01-26T03:35:45.783Z,28.00
2023-01-26T03:38:13.032Z,27.93
2023-01-26T03:40:58.676Z,28.93
2023-01-26T03:43:44.396Z,28.90
2023-01-26T03:46:29.737Z,27.37
2023-01-26T03:49:15.282Z,32.03
2023-01-26T03:52:00.772Z,29.43
2023-01-26T03:54:46.399Z,28.67
2023-01-26T03:57:13.228Z,28.93
2023-01-26T03:59:40.108Z,30.63
2023-01-26T04:02:28.002Z,26.73
2023-01-26T04:05:13.727Z,28.17
2023-01-26T04:07:59.339Z,29.40
2023-01-26T04:10:26.825Z,26.80
2023-01-26T04:13:12.270Z,24.97
2023-01-26T04:15:57.715Z,27.03
2023-01-26T04:18:43.330Z,26.10
2023-01-26T04:21:29.046Z,24.30
2023-01-26T04:23:57.899Z,24.80
2023-01-26T04:26:27.039Z,25.00
2023-01-26T04:28:54.067Z,26.10
2023-01-26T04:31:20.950Z,25.23
2023-01-26T04:33:47.815Z,25.53
2023-01-26T04:36:14.632Z,27.03
2023-01-26T04:38:41.466Z,30.03
2023-01-26T04:41:08.372Z,31.57
2023-01-26T04:43:35.247Z,31.67
2023-01-26T04:46:04.734Z,32.57
2023-01-26T04:48:32.105Z,33.13
2023-01-26T04:51:02.688Z,33.13
2023-01-26T04:53:29.737Z,35.73
2023-01-26T04:55:56.644Z,35.70
2023-01-26T04:58:23.555Z,36.70
2023-01-26T05:00:55.040Z,37.63
2023-01-26T05:03:22.837Z,37.57
2023-01-26T05:05:52.047Z,38.70
2023-01-26T05:08:20.102Z,39.73
2023-01-26T05:10:47.488Z,39.27
2023-01-26T05:13:14.590Z,41.90
2023-01-26T05:15:41.467Z,39.73
2023-01-26T05:18:09.725Z,40.20
2023-01-26T05:20:36.623Z,40.87
2023-01-26T05:23:03.446Z,38.73
2023-01-26T05:25:30.440Z,39.50
2023-01-26T05:27:57.469Z,37.00
2023-01-26T05:30:24.360Z,40.33
2023-01-26T05:32:51.314Z,39.13
2023-01-26T05:35:18.199Z,38.37
2023-01-26T05:37:45.882Z,38.83
2023-01-26T05:40:13.505Z,40.73
2023-01-26T05:42:42.074Z,37.13
2023-01-26T05:45:09.319Z,39.87
2023-01-26T05:47:36.220Z,37.47
2023-01-26T05:50:03.448Z,35.90
2023-01-26T05:52:30.310Z,37.00
2023-01-26T05:54:57.312Z,37.70
2023-01-26T05:57:24.260Z,38.67
2023-01-26T05:59:51.175Z,37.40
2023-01-26T06:02:18.065Z,35.03
2023-01-26T06:04:44.925Z,35.27
2023-01-26T06:07:13.749Z,34.73
2023-01-26T06:09:41.163Z,31.43
2023-01-26T06:12:14.035Z,33.20
2023-01-26T06:14:40.848Z,32.43
2023-01-26T06:17:07.870Z,33.50
2023-01-26T06:19:36.114Z,31.93
2023-01-26T06:22:03.484Z,32.47
2023-01-26T06:24:30.629Z,31.43
2023-01-26T06:26:57.631Z,31.70
2023-01-26T06:29:24.471Z,32.27
2023-01-26T06:31:51.377Z,30.37
2023-01-26T06:34:18.218Z,29.90
2023-01-26T06:36:45.043Z,28.97
2023-01-26T06:39:12.831Z,29.93
2023-01-26T06:41:42.272Z,38.13
2023-01-26T06:44:09.128Z,35.93
2023-01-26T06:46:36.118Z,31.67
2023-01-26T06:49:03.839Z,30.87
2023-01-26T06:52:07.375Z,30.27
2023-01-26T06:54:34.190Z,33.33
2023-01-26T06:57:01.133Z,30.60
2023-01-26T06:59:27.964Z,28.77
2023-01-26T07:01:54.765Z,30.60
2023-01-26T07:04:25.489Z,29.60
2023-01-26T07:06:52.290Z,30.53
2023-01-26T07:09:19.111Z,33.60
2023-01-26T07:11:45.948Z,31.20
2023-01-26T07:14:12.867Z,31.90
2023-01-26T07:16:39.715Z,50.20
2023-01-26T07:19:06.567Z,55.70
2023-01-26T07:21:33.368Z,49.47
2023-01-26T07:24:00.230Z,49.37
2023-01-26T07:26:27.072Z,48.07
2023-01-26T07:28:54.092Z,41.83
2023-01-26T07:31:21.131Z,42.63
2023-01-26T07:33:48.046Z,41.30
2023-01-26T07:36:14.906Z,48.17
2023-01-26T07:38:41.773Z,47.53
2023-01-26T07:41:12.176Z,46.10
2023-01-26T07:43:39.845Z,35.53
2023-01-26T07:46:07.173Z,30.30
2023-01-26T07:48:34.511Z,32.53
2023-01-26T07:51:03.698Z,31.70
2023-01-26T07:53:34.219Z,30.87
2023-01-26T07:56:07.699Z,30.57
2023-01-26T07:58:35.685Z,56.37
2023-01-26T08:01:13.838Z,57.53
2023-01-26T08:03:41.978Z,39.73
2023-01-26T08:06:11.887Z,35.20
2023-01-26T08:08:41.698Z,30.53
2023-01-26T08:11:09.404Z,29.13
2023-01-26T08:13:36.440Z,33.63
2023-01-26T08:16:13.162Z,32.77
2023-01-26T08:18:42.137Z,31.97
2023-01-26T08:21:09.875Z,30.97
2023-01-26T08:23:36.882Z,32.27
2023-01-26T08:26:24.994Z,32.47
2023-01-26T08:28:51.813Z,33.17
2023-01-26T08:31:20.900Z,29.80
2023-01-26T08:33:54.455Z,28.37
2023-01-26T08:36:22.720Z,31.80
2023-01-26T08:38:50.543Z,32.60
2023-01-26T08:41:17.740Z,32.17
2023-01-26T08:43:44.740Z,30.13
2023-01-26T08:46:11.725Z,31.50
2023-01-26T08:48:38.832Z,29.87
2023-01-26T08:51:07.803Z,32.47
2023-01-26T08:53:36.384Z,29.17
2023-01-26T08:56:07.974Z,33.20
2023-01-26T08:58:35.656Z,38.37
2023-01-26T09:01:12.265Z,33.40
2023-01-26T09:03:39.300Z,29.27
2023-01-26T09:06:08.170Z,26.50
2023-01-26T09:08:35.089Z,22.93
2023-01-26T09:11:02.724Z,26.00
2023-01-26T09:13:29.564Z,37.80
2023-01-26T09:15:56.455Z,29.50
2023-01-26T09:18:23.288Z,26.13
2023-01-26T09:20:51.312Z,26.37
2023-01-26T09:23:18.371Z,31.97
2023-01-26T09:25:45.462Z,36.27
2023-01-26T09:28:12.488Z,40.57
2023-01-26T09:30:39.455Z,29.23
2023-01-26T09:33:07.110Z,26.97
2023-01-26T09:35:33.953Z,30.70
2023-01-26T09:38:00.819Z,27.77
2023-01-26T09:40:59.297Z,26.43
2023-01-26T09:43:46.202Z,30.03
2023-01-26T09:46:42.717Z,27.37
2023-01-26T09:49:13.413Z,27.40
2023-01-26T09:52:00.383Z,30.33
2023-01-26T09:54:33.602Z,31.00
2023-01-26T09:57:02.469Z,27.63
2023-01-26T09:59:44.571Z,33.27
2023-01-26T10:02:38.059Z,41.43
2023-01-26T10:05:33.917Z,42.50
2023-01-26T10:08:00.816Z,85.83
2023-01-26T10:10:32.399Z,32.13
2023-01-26T10:13:00.026Z,32.97
2023-01-26T10:15:30.407Z,35.70
2023-01-26T10:18:00.706Z,38.30
2023-01-26T10:20:34.407Z,40.10
2023-01-26T10:23:19.495Z,42.67
2023-01-26T10:25:51.071Z,30.63
2023-01-26T10:28:22.388Z,28.47
2023-01-26T10:30:51.420Z,30.80
2023-01-26T10:33:36.536Z,34.90
2023-01-26T10:36:06.732Z,31.00
2023-01-26T10:38:33.572Z,24.93
2023-01-26T10:41:06.011Z,27.37
2023-01-26T10:43:37.313Z,40.47
2023-01-26T10:46:04.816Z,32.47
2023-01-26T10:48:31.983Z,28.03
2023-01-26T10:51:16.174Z,30.57
2023-01-26T10:53:42.994Z,36.97
2023-01-26T10:56:14.984Z,50.60
2023-01-26T10:58:49.030Z,33.53
2023-01-26T11:01:18.842Z,29.50
2023-01-26T11:04:15.392Z,29.90
2023-01-26T11:06:42.471Z,34.83
2023-01-26T11:09:25.012Z,38.67
2023-01-26T11:12:04.735Z,44.10
2023-01-26T11:14:32.848Z,31.57
2023-01-26T11:17:19.921Z,36.40
2023-01-26T11:20:08.516Z,33.47
2023-01-26T11:23:04.254Z,30.97
2023-01-26T11:26:13.356Z,32.23
2023-01-26T11:29:04.914Z,31.67
2023-01-26T11:31:34.821Z,30.50
2023-01-26T11:34:10.595Z,29.63
2023-01-26T11:36:58.028Z,30.23
2023-01-26T11:39:46.561Z,25.97
2023-01-26T11:42:45.485Z,27.97
2023-01-26T11:45:31.120Z,26.57
2023-01-26T11:48:36.310Z,29.53
2023-01-26T11:51:25.147Z,26.63
2023-01-26T11:54:13.750Z,24.97
2023-01-26T11:56:59.902Z,35.87
2023-01-26T11:59:54.958Z,37.97
2023-01-26T12:02:31.442Z,31.53
2023-01-26T12:05:03.441Z,29.87
2023-01-26T12:07:59.612Z,34.43
2023-01-26T12:11:23.238Z,42.73
2023-01-26T12:14:08.572Z,31.73
2023-01-26T12:17:11.460Z,27.23
2023-01-26T12:20:05.819Z,23.30
2023-01-26T12:22:42.291Z,23.60
2023-01-26T12:25:29.225Z,27.27
2023-01-26T12:28:14.804Z,26.73
2023-01-26T12:30:41.670Z,24.23
2023-01-26T12:33:12.805Z,22.67
2023-01-26T12:35:57.722Z,22.97
2023-01-26T12:38:34.489Z,23.20
2023-01-26T12:41:13.467Z,23.10
2023-01-26T12:43:47.438Z,22.50
2023-01-26T12:46:15.656Z,25.73
2023-01-26T12:48:50.591Z,30.07
2023-01-26T12:51:33.238Z,23.13
2023-01-26T12:54:20.947Z,22.93
2023-01-26T12:56:52.911Z,22.73
2023-01-26T12:59:46.475Z,23.27
2023-01-26T13:02:31.908Z,22.70
2023-01-26T13:05:00.417Z,22.70
2023-01-26T13:07:37.966Z,22.27
2023-01-26T13:10:44.865Z,22.60
2023-01-26T13:13:17.616Z,23.50
2023-01-26T13:15:44.602Z,24.27
2023-01-26T13:18:17.370Z,24.17
2023-01-26T13:20:49.390Z,33.80
2023-01-26T13:23:41.093Z,25.67
2023-01-26T13:26:16.037Z,26.97
2023-01-26T13:28:43.636Z,27.03
2023-01-26T13:31:11.669Z,25.33
2023-01-26T13:33:41.052Z,23.67
2023-01-26T13:36:17.160Z,23.17
2023-01-26T13:38:50.520Z,22.70
2023-01-26T13:41:22.251Z,21.53
2023-01-26T13:43:54.664Z,22.60
2023-01-26T13:46:21.514Z,21.03
2023-01-26T13:48:49.638Z,23.37
2023-01-26T13:51:19.939Z,22.70
2023-01-26T13:54:11.980Z,23.47
2023-01-26T13:56:43.940Z,26.53
2023-01-26T13:59:16.855Z,33.67
2023-01-26T14:01:49.894Z,24.77
2023-01-26T14:04:22.721Z,22.57
2023-01-26T14:07:15.672Z,22.60
2023-01-26T14:09:51.320Z,22.77
2023-01-26T14:12:25.350Z,22.87
2023-01-26T14:14:56.758Z,22.50
2023-01-26T14:17:26.431Z,21.53
2023-01-26T14:19:53.294Z,23.37
2023-01-26T14:22:22.204Z,26.50
2023-01-26T14:24:51.167Z,25.40
2023-01-26T14:27:29.794Z,25.33
2023-01-26T14:29:57.864Z,23.30
2023-01-26T14:32:25.931Z,24.57
2023-01-26T14:34:54.744Z,23.23
2023-01-26T14:37:22.036Z,23.20
2023-01-26T14:39:48.996Z,23.23
2023-01-26T14:42:18.907Z,23.50
2023-01-26T14:44:46.375Z,24.77
2023-01-26T14:47:19.647Z,23.57
2023-01-26T14:50:03.452Z,23.83
2023-01-26T14:52:34.622Z,22.83
2023-01-26T14:55:12.450Z,22.57
2023-01-26T14:57:39.715Z,23.40
2023-01-26T15:00:10.389Z,22.47
2023-01-26T15:02:42.934Z,26.77
2023-01-26T15:05:19.042Z,26.83
2023-01-26T15:07:55.935Z,27.30
2023-01-26T15:10:35.114Z,28.07
2023-01-26T15:13:10.965Z,32.90
2023-01-26T15:15:40.851Z,35.80
2023-01-26T15:18:13.586Z,38.10
2023-01-26T15:20:45.645Z,33.73
2023-01-26T15:23:31.050Z,37.47
2023-01-26T15:26:30.804Z,37.80
2023-01-26T15:29:00.657Z,31.27
2023-01-26T15:31:39.937Z,32.50
2023-01-26T15:34:27.161Z,34.57
2023-01-26T15:36:54.151Z,31.10
2023-01-26T15:39:21.053Z,29.17
2023-01-26T15:42:12.946Z,28.37
2023-01-26T15:44:40.500Z,49.97
2023-01-26T15:47:12.232Z,34.10
2023-01-26T15:49:39.675Z,39.03
2023-01-26T15:52:17.299Z,31.40
2023-01-26T15:54:44.454Z,33.53
2023-01-26T15:57:14.409Z,30.33
2023-01-26T15:59:41.405Z,31.20
2023-01-26T16:02:19.397Z,30.90
2023-01-26T16:04:46.434Z,31.73
2023-01-26T16:07:18.673Z,29.80
2023-01-26T16:09:45.606Z,29.43
2023-01-26T16:12:30.440Z,30.40
2023-01-26T16:14:58.144Z,30.63
2023-01-26T16:17:24.994Z,30.37
2023-01-26T16:19:51.952Z,30.43
2023-01-26T16:22:18.865Z,30.10
2023-01-26T16:24:46.878Z,29.97
2023-01-26T16:27:13.733Z,37.47
2023-01-26T16:29:40.837Z,72.07
2023-01-26T16:32:31.561Z,38.77
2023-01-26T16:34:58.903Z,34.77
2023-01-26T16:37:25.730Z,40.10
2023-01-26T16:39:52.654Z,42.17
2023-01-26T16:42:21.582Z,36.43
2023-01-26T16:44:48.772Z,35.97
2023-01-26T16:47:15.783Z,33.03
2023-01-26T16:49:42.663Z,30.03
2023-01-26T16:52:10.198Z,28.37
2023-01-26T16:54:37.149Z,30.63
2023-01-26T16:57:04.176Z,30.53
2023-01-26T16:59:31.338Z,29.83
2023-01-26T17:01:58.592Z,31.17
2023-01-26T17:04:25.608Z,31.77
2023-01-26T17:06:52.462Z,33.53
2023-01-26T17:09:21.101Z,32.50
2023-01-26T17:11:47.949Z,34.60
2023-01-26T17:14:14.936Z,32.73
2023-01-26T17:16:41.957Z,32.90
2023-01-26T17:19:09.498Z,33.70
2023-01-26T17:21:36.611Z,32.50
2023-01-26T17:24:03.840Z,32.90
2023-01-26T17:26:30.821Z,30.67
2023-01-26T17:28:57.760Z,31.80
2023-01-26T17:31:25.688Z,33.00
2023-01-26T17:33:52.675Z,31.97
2023-01-26T17:36:20.401Z,33.20
2023-01-26T17:38:48.398Z,34.87
2023-01-26T17:41:16.341Z,32.73
2023-01-26T17:43:43.211Z,33.33
2023-01-26T17:46:15.199Z,31.83
2023-01-26T17:48:44.902Z,31.77
2023-01-26T17:51:17.682Z,31.37
2023-01-26T17:53:46.695Z,31.80
2023-01-26T17:56:16.236Z,32.57
2023-01-26T17:58:46.871Z,32.27
2023-01-26T18:01:13.745Z,34.70
2023-01-26T18:03:42.750Z,35.17
2023-01-26T18:06:10.553Z,33.37
2023-01-26T18:08:38.535Z,34.87
2023-01-26T18:11:08.396Z,36.37
2023-01-26T18:13:35.949Z,35.73
2023-01-26T18:16:06.612Z,35.63
2023-01-26T18:18:33.829Z,36.27
2023-01-26T18:21:25.072Z,37.07
2023-01-26T18:23:54.388Z,37.43
2023-01-26T18:26:23.391Z,36.50
2023-01-26T18:28:50.976Z,36.80
2023-01-26T18:31:24.853Z,36.17
2023-01-26T18:33:52.460Z,35.20
2023-01-26T18:36:21.354Z,34.00
2023-01-26T18:38:54.452Z,34.97
2023-01-26T18:41:23.138Z,36.27
2023-01-26T18:43:51.633Z,36.13
2023-01-26T18:46:19.056Z,36.13
2023-01-26T18:48:45.939Z,34.60
2023-01-26T18:51:13.246Z,33.13
2023-01-26T18:53:40.399Z,32.80
2023-01-26T18:56:10.199Z,33.40
2023-01-26T18:58:38.209Z,33.60
2023-01-26T19:01:09.608Z,33.87
2023-01-26T19:03:38.003Z,34.93
2023-01-26T19:06:06.314Z,35.17
2023-01-26T19:08:34.567Z,36.07
2023-01-26T19:11:08.635Z,34.43
2023-01-26T19:13:36.316Z,34.17
2023-01-26T19:16:03.481Z,34.60
2023-01-26T19:18:30.524Z,34.67
2023-01-26T19:21:02.248Z,34.47
2023-01-26T19:23:29.193Z,37.00
2023-01-26T19:25:56.447Z,37.80
2023-01-26T19:28:23.347Z,36.67
2023-01-26T19:30:50.421Z,37.73
2023-01-26T19:33:28.123Z,36.47
2023-01-26T19:35:56.455Z,35.73
2023-01-26T19:38:24.396Z,37.60
2023-01-26T19:40:52.279Z,39.40
2023-01-26T19:43:19.934Z,39.03
2023-01-26T19:45:53.178Z,36.77
2023-01-26T19:48:25.477Z,37.87
2023-01-26T19:51:08.632Z,37.03
2023-01-26T19:53:38.492Z,36.27
2023-01-26T19:56:10.501Z,37.63
2023-01-26T19:58:37.939Z,37.83
2023-01-26T20:01:07.776Z,39.00
2023-01-26T20:03:35.397Z,37.37
2023-01-26T20:06:03.226Z,38.90
2023-01-26T20:08:30.752Z,39.73
2023-01-26T20:11:08.536Z,46.53
2023-01-26T20:13:36.252Z,42.50
2023-01-26T20:16:04.831Z,42.53
2023-01-26T20:18:31.804Z,41.17
2023-01-26T20:21:00.939Z,42.07
2023-01-26T20:23:28.802Z,39.47
2023-01-26T20:26:04.764Z,38.97
2023-01-26T20:28:31.896Z,37.93
2023-01-26T20:31:08.596Z,38.73
2023-01-26T20:33:36.329Z,37.53
2023-01-26T20:36:08.684Z,38.83
2023-01-26T20:38:35.784Z,39.03
2023-01-26T20:41:15.181Z,38.20
2023-01-26T20:43:58.143Z,38.77
2023-01-26T20:46:26.838Z,37.53
2023-01-26T20:48:55.778Z,38.70
2023-01-26T20:51:25.246Z,39.73
2023-01-26T20:53:52.218Z,38.70
2023-01-26T20:56:21.865Z,38.83
2023-01-26T20:58:51.405Z,41.47
2023-01-26T21:01:19.098Z,43.33
2023-01-26T21:03:46.269Z,40.37
2023-01-26T21:06:16.105Z,41.03
2023-01-26T21:08:43.387Z,41.33
2023-01-26T21:11:12.868Z,40.57
2023-01-26T21:13:42.896Z,41.03
2023-01-26T21:16:12.538Z,40.53
2023-01-26T21:18:39.571Z,38.77
2023-01-26T21:21:08.525Z,40.50
2023-01-26T21:23:35.597Z,39.97
2023-01-26T21:26:05.642Z,39.53
2023-01-26T21:28:32.873Z,41.20
2023-01-26T21:31:04.428Z,40.77
2023-01-26T21:33:33.111Z,40.57
2023-01-26T21:36:02.397Z,41.83
2023-01-26T21:38:34.906Z,44.57
2023-01-26T21:41:25.646Z,44.37
2023-01-26T21:44:00.460Z,43.40
2023-01-26T21:46:29.033Z,43.97
2023-01-26T21:48:56.569Z,45.07
2023-01-26T21:51:42.704Z,43.93
2023-01-26T21:54:09.954Z,44.27
2023-01-26T21:56:37.312Z,44.87
2023-01-26T21:59:07.676Z,47.73
2023-01-26T22:01:40.357Z,46.93
2023-01-26T22:04:10.145Z,47.83
2023-01-26T22:06:37.640Z,47.70
2023-01-26T22:09:06.325Z,47.60
2023-01-26T22:11:33.331Z,47.27
2023-01-26T22:14:00.991Z,46.10
2023-01-26T22:16:29.173Z,45.23
2023-01-26T22:18:56.176Z,47.70
2023-01-26T22:21:23.195Z,47.23
2023-01-26T22:23:50.719Z,46.63
2023-01-26T22:26:20.379Z,47.33
2023-01-26T22:28:51.859Z,46.20
2023-01-26T22:31:20.149Z,46.40
2023-01-26T22:33:47.901Z,49.17
2023-01-26T22:36:15.065Z,47.10
2023-01-26T22:38:42.326Z,47.47
2023-01-26T22:41:19.598Z,47.03
2023-01-26T22:43:51.331Z,48.23
2023-01-26T22:46:20.344Z,47.73
2023-01-26T22:48:47.498Z,48.83
2023-01-26T22:51:22.702Z,49.67
2023-01-26T22:53:51.449Z,50.10
2023-01-26T22:56:19.240Z,49.57
2023-01-26T22:59:00.656Z,51.63
2023-01-26T23:01:32.980Z,48.03
2023-01-26T23:04:01.005Z,51.17
2023-01-26T23:06:28.001Z,51.53
2023-01-26T23:08:55.245Z,52.17
2023-01-26T23:11:27.698Z,50.80
2023-01-26T23:13:55.967Z,53.90
2023-01-26T23:16:24.006Z,52.37
2023-01-26T23:18:53.103Z,51.40
2023-01-26T23:21:20.322Z,51.77
2023-01-26T23:23:47.312Z,50.20
2023-01-26T23:26:14.301Z,51.83
2023-01-26T23:28:42.925Z,48.80
2023-01-26T23:31:11.658Z,50.20
2023-01-26T23:33:39.536Z,51.13
2023-01-26T23:36:08.121Z,49.10
2023-01-26T23:38:35.360Z,50.03
2023-01-26T23:41:02.903Z,50.07
2023-01-26T23:43:29.706Z,47.80
2023-01-26T23:45:56.982Z,49.53
2023-01-26T23:48:25.028Z,48.40
2023-01-26T23:50:56.485Z,48.00
2023-01-26T23:53:24.176Z,46.40
2023-01-26T23:55:51.150Z,50.57
2023-01-26T23:58:18.457Z,47.50
